Time;durP1;ratioP1;P1;durP2;ratioP2;P2;SDS_P1;SDS_P2;PMS_P1;PMS_P2;Temp;Humidity;BMP_temperature;BMP_pressure;BME280_temperature;BME280_humidity;BME280_pressure;Samples;Min_cycle;Max_cycle;Signal;HPM_P1;HPM_P2
2023/07/07 00:01:18;;;;;;;3.80;2.40;;;;;;;;;;5096312;28;42764;-55
2023/07/07 00:03:46;;;;;;;4.82;2.42;;;;;;;;;;5095427;27;41080;-56
2023/07/07 00:06:14;;;;;;;3.55;2.55;;;;;;;;;;5107452;27;41855;-55
2023/07/07 00:08:42;;;;;;;3.30;2.42;;;;;;;;;;5108005;27;43210;-53
2023/07/07 00:11:10;;;;;;;3.28;2.45;;;;;;;;;;5106527;27;40781;-55
2023/07/07 00:13:39;;;;;;;3.85;2.63;;;;;;;;;;5107788;27;41655;-55
2023/07/07 00:16:07;;;;;;;2.78;2.42;;;;;;;;;;5107820;27;41095;-52
2023/07/07 00:18:35;;;;;;;2.67;2.20;;;;;;;;;;5106710;27;42551;-55
2023/07/07 00:21:03;;;;;;;3.70;2.42;;;;;;;;;;5108328;27;41672;-56
2023/07/07 00:23:32;;;;;;;2.85;2.60;;;;;;;;;;5107739;27;41368;-56
2023/07/07 00:26:00;;;;;;;4.25;2.92;;;;;;;;;;5106620;27;41860;-53
2023/07/07 00:28:28;;;;;;;2.88;2.50;;;;;;;;;;5106557;27;42925;-54
2023/07/07 00:30:58;;;;;;;2.63;2.42;;;;;;;;;;5123042;27;38978;-56
2023/07/07 00:33:26;;;;;;;4.82;2.85;;;;;;;;;;5104802;28;39644;-54
2023/07/07 00:35:54;;;;;;;4.38;2.78;;;;;;;;;;5108281;27;41036;-53
2023/07/07 00:38:24;;;;;;;4.68;2.72;;;;;;;;;;5108817;28;42754;-55
2023/07/07 00:40:52;;;;;;;3.40;2.67;;;;;;;;;;5126824;27;40546;-55
2023/07/07 00:43:20;;;;;;;3.50;2.40;;;;;;;;;;5111089;28;40250;-56
2023/07/07 00:45:48;;;;;;;5.25;2.80;;;;;;;;;;5110680;28;41251;-53
2023/07/07 00:48:19;;;;;;;2.85;2.63;;;;;;;;;;5108993;28;42025;-55
2023/07/07 00:50:48;;;;;;;4.32;3.03;;;;;;;;;;5111615;28;40304;-55
2023/07/07 00:53:18;;;;;;;3.20;2.30;;;;;;;;;;5124361;27;40105;-55
2023/07/07 00:55:47;;;;;;;3.08;2.63;;;;;;;;;;5102185;28;41948;-55
2023/07/07 00:58:16;;;;;;;2.70;2.30;;;;;;;;;;5103472;28;41653;-55
2023/07/07 01:00:45;;;;;;;2.65;2.20;;;;;;;;;;5099461;27;42051;-54
2023/07/07 01:03:16;;;;;;;4.43;2.60;;;;;;;;;;5093528;28;39921;-55
2023/07/07 01:05:45;;;;;;;2.67;2.42;;;;;;;;;;5101010;28;42066;-56
2023/07/07 01:08:13;;;;;;;2.60;2.30;;;;;;;;;;5096230;27;43095;-55
2023/07/07 01:10:41;;;;;;;3.22;2.45;;;;;;;;;;5109624;28;39923;-54
2023/07/07 01:13:09;;;;;;;4.13;2.88;;;;;;;;;;5110000;28;42440;-53
2023/07/07 01:15:41;;;;;;;3.40;2.70;;;;;;;;;;5124475;27;41333;-53
2023/07/07 01:18:14;;;;;;;2.90;2.50;;;;;;;;;;5108898;28;40367;-54
2023/07/07 01:20:42;;;;;;;2.80;2.50;;;;;;;;;;5108537;28;41661;-51
2023/07/07 01:23:45;;;;;;;2.72;2.38;;;;;;;;;;5109009;27;41058;-53
2023/07/07 01:26:19;;;;;;;2.63;2.30;;;;;;;;;;5124600;27;41156;-53
2023/07/07 01:29:00;;;;;;;3.28;2.80;;;;;;;;;;5107381;28;40726;-55
2023/07/07 01:31:32;;;;;;;2.70;2.50;;;;;;;;;;5108171;28;40979;-53
2023/07/07 01:34:01;;;;;;;3.33;2.30;;;;;;;;;;5108118;28;41471;-52
2023/07/07 01:36:29;;;;;;;2.88;2.47;;;;;;;;;;5107698;28;41319;-51
2023/07/07 01:38:59;;;;;;;2.90;2.60;;;;;;;;;;5108636;28;39978;-52
2023/07/07 01:41:29;;;;;;;3.15;2.22;;;;;;;;;;5109570;27;42031;-56
2023/07/07 01:43:58;;;;;;;2.67;2.30;;;;;;;;;;5109206;28;41028;-53
2023/07/07 01:46:27;;;;;;;3.08;2.22;;;;;;;;;;5125256;27;40470;-56
2023/07/07 01:49:00;;;;;;;3.53;2.50;;;;;;;;;;5107138;28;40938;-56
2023/07/07 01:51:28;;;;;;;3.03;2.50;;;;;;;;;;5109727;27;40907;-55
2023/07/07 01:53:56;;;;;;;3.70;2.80;;;;;;;;;;5109965;28;42528;-56
2023/07/07 01:56:25;;;;;;;2.85;2.25;;;;;;;;;;5108592;28;42147;-51
2023/07/07 01:58:54;;;;;;;2.75;2.30;;;;;;;;;;5108559;28;39312;-55
2023/07/07 02:01:22;;;;;;;3.13;2.60;;;;;;;;;;5104686;28;41457;-51
2023/07/07 02:03:50;;;;;;;2.47;2.28;;;;;;;;;;5096133;28;40467;-53
2023/07/07 02:06:19;;;;;;;3.50;2.78;;;;;;;;;;5092066;28;41588;-56
2023/07/07 02:08:47;;;;;;;4.28;2.75;;;;;;;;;;5107886;28;42594;-53
2023/07/07 02:11:15;;;;;;;3.60;2.63;;;;;;;;;;5100246;28;41397;-56
2023/07/07 02:13:43;;;;;;;2.88;2.60;;;;;;;;;;5096191;28;44918;-53
2023/07/07 02:16:11;;;;;;;3.95;3.10;;;;;;;;;;5092535;28;42850;-51
2023/07/07 02:18:41;;;;;;;3.10;2.47;;;;;;;;;;5085990;28;40125;-52
2023/07/07 02:21:09;;;;;;;3.80;2.92;;;;;;;;;;5096747;28;40647;-53
2023/07/07 02:23:39;;;;;;;3.22;2.70;;;;;;;;;;5099484;28;41336;-54
2023/07/07 02:26:07;;;;;;;3.65;2.47;;;;;;;;;;5097661;28;42420;-56
2023/07/07 02:28:35;;;;;;;3.08;2.50;;;;;;;;;;5108228;27;42778;-54
2023/07/07 02:31:03;;;;;;;2.70;2.50;;;;;;;;;;5106912;28;39768;-52
2023/07/07 02:33:31;;;;;;;3.55;2.25;;;;;;;;;;5107302;28;40751;-55
2023/07/07 02:36:01;;;;;;;5.47;2.60;;;;;;;;;;5107353;28;40896;-54
2023/07/07 02:38:30;;;;;;;3.33;2.72;;;;;;;;;;5106971;27;41396;-55
2023/07/07 02:40:59;;;;;;;2.97;2.58;;;;;;;;;;5124382;27;40449;-54
2023/07/07 02:43:28;;;;;;;2.95;2.60;;;;;;;;;;5108824;27;42131;-54
2023/07/07 02:45:56;;;;;;;3.15;2.85;;;;;;;;;;5108991;28;40101;-52
2023/07/07 02:48:25;;;;;;;4.07;2.80;;;;;;;;;;5106630;28;40753;-54
2023/07/07 02:50:56;;;;;;;3.20;2.90;;;;;;;;;;5108498;28;40462;-53
2023/07/07 02:53:25;;;;;;;3.50;3.20;;;;;;;;;;5105696;28;40091;-55
2023/07/07 02:55:53;;;;;;;3.42;2.78;;;;;;;;;;5108927;28;42147;-51
2023/07/07 02:58:23;;;;;;;3.17;2.88;;;;;;;;;;5106397;28;39055;-54
2023/07/07 03:00:51;;;;;;;3.60;2.75;;;;;;;;;;5104875;28;40669;-50
2023/07/07 03:03:19;;;;;;;2.90;2.40;;;;;;;;;;5107980;28;43696;-51
2023/07/07 03:05:47;;;;;;;3.00;2.67;;;;;;;;;;5108442;28;40017;-52
2023/07/07 03:08:16;;;;;;;2.83;2.60;;;;;;;;;;5106892;28;40639;-56
2023/07/07 03:10:44;;;;;;;3.00;2.60;;;;;;;;;;5108387;28;41291;-56
2023/07/07 03:13:12;;;;;;;3.65;2.78;;;;;;;;;;5107581;27;41619;-51
2023/07/07 03:15:46;;;;;;;3.00;2.70;;;;;;;;;;5106772;28;40994;-54
2023/07/07 03:18:21;;;;;;;5.63;2.63;;;;;;;;;;5106149;28;38971;-54
2023/07/07 03:21:07;;;;;;;2.65;2.42;;;;;;;;;;5105708;28;41390;-55
2023/07/07 03:23:39;;;;;;;4.05;2.75;;;;;;;;;;5106280;27;43193;-56
2023/07/07 03:26:10;;;;;;;3.20;2.70;;;;;;;;;;5096465;28;40622;-55
2023/07/07 03:28:39;;;;;;;2.88;2.65;;;;;;;;;;5099593;28;41188;-55
2023/07/07 03:31:10;;;;;;;2.72;2.53;;;;;;;;;;5098571;28;40627;-52
2023/07/07 03:33:39;;;;;;;2.88;2.50;;;;;;;;;;5094892;28;39960;-56
2023/07/07 03:36:10;;;;;;;3.00;2.70;;;;;;;;;;5123129;27;40775;-51
2023/07/07 03:38:38;;;;;;;3.65;2.53;;;;;;;;;;5106043;28;39262;-54
2023/07/07 03:41:06;;;;;;;3.22;2.80;;;;;;;;;;5103230;28;40062;-55
2023/07/07 03:43:35;;;;;;;2.70;2.50;;;;;;;;;;5087743;28;43908;-54
2023/07/07 03:46:04;;;;;;;3.13;2.83;;;;;;;;;;5102959;28;39862;-56
2023/07/07 03:48:34;;;;;;;4.50;2.47;;;;;;;;;;5101969;28;40221;-53
2023/07/07 03:51:03;;;;;;;2.88;2.60;;;;;;;;;;5107121;27;40673;-52
2023/07/07 03:53:32;;;;;;;2.70;2.50;;;;;;;;;;5106643;28;39022;-52
2023/07/07 03:56:00;;;;;;;3.05;2.70;;;;;;;;;;5105898;28;40720;-52
2023/07/07 03:58:28;;;;;;;2.95;2.30;;;;;;;;;;5106065;28;38972;-55
2023/07/07 04:01:00;;;;;;;3.10;2.70;;;;;;;;;;5107363;28;42535;-53
2023/07/07 04:03:28;;;;;;;3.25;2.92;;;;;;;;;;5104701;28;42201;-54
2023/07/07 04:05:58;;;;;;;3.00;2.70;;;;;;;;;;5108226;28;40517;-54
2023/07/07 04:08:27;;;;;;;3.03;2.70;;;;;;;;;;5123407;27;40304;-55
2023/07/07 04:10:59;;;;;;;2.63;2.42;;;;;;;;;;5106828;28;42355;-52
2023/07/07 04:13:27;;;;;;;3.22;2.92;;;;;;;;;;5107550;28;40830;-54
2023/07/07 04:15:59;;;;;;;2.90;2.65;;;;;;;;;;5105402;28;41094;-53
2023/07/07 04:18:27;;;;;;;3.47;2.92;;;;;;;;;;5096652;28;39348;-52
2023/07/07 04:20:59;;;;;;;4.25;2.65;;;;;;;;;;5105807;28;41782;-55
2023/07/07 04:23:27;;;;;;;2.70;2.50;;;;;;;;;;5106085;28;44742;-54
2023/07/07 04:25:55;;;;;;;3.33;2.65;;;;;;;;;;5107762;28;40391;-53
2023/07/07 04:28:23;;;;;;;3.78;2.78;;;;;;;;;;5106796;27;42499;-53
2023/07/07 04:30:52;;;;;;;2.65;2.45;;;;;;;;;;5106121;27;42280;-55
2023/07/07 04:33:20;;;;;;;2.80;2.60;;;;;;;;;;5099658;27;39869;-55
2023/07/07 04:35:51;;;;;;;2.88;2.58;;;;;;;;;;5094917;28;41835;-51
2023/07/07 04:38:20;;;;;;;3.60;2.55;;;;;;;;;;5087102;28;40405;-54
2023/07/07 04:40:48;;;;;;;3.55;2.67;;;;;;;;;;5089002;28;41528;-56
2023/07/07 04:43:16;;;;;;;3.58;2.90;;;;;;;;;;5100698;28;42018;-54
2023/07/07 04:45:44;;;;;;;2.70;2.50;;;;;;;;;;5105734;27;40969;-54
2023/07/07 04:48:12;;;;;;;3.97;2.95;;;;;;;;;;5107509;27;41541;-54
2023/07/07 04:50:40;;;;;;;4.10;3.30;;;;;;;;;;5106714;27;41908;-56
2023/07/07 04:53:08;;;;;;;4.13;2.90;;;;;;;;;;5107115;27;39635;-55
2023/07/07 04:55:42;;;;;;;3.83;2.97;;;;;;;;;;5106062;27;42170;-53
2023/07/07 04:58:10;;;;;;;3.17;2.88;;;;;;;;;;5107621;27;43688;-56
2023/07/07 05:00:38;;;;;;;4.90;3.25;;;;;;;;;;5105570;27;42524;-55
2023/07/07 05:03:06;;;;;;;3.88;3.50;;;;;;;;;;5106810;28;41491;-56
2023/07/07 05:05:35;;;;;;;3.50;2.92;;;;;;;;;;5105541;27;40583;-54
2023/07/07 05:08:03;;;;;;;3.47;3.17;;;;;;;;;;5106591;27;41720;-56
2023/07/07 05:10:31;;;;;;;3.70;3.40;;;;;;;;;;5106046;27;43127;-54
2023/07/07 05:13:01;;;;;;;4.78;3.20;;;;;;;;;;5106032;27;40519;-55
2023/07/07 05:15:30;;;;;;;4.07;3.65;;;;;;;;;;5106463;27;41398;-54
2023/07/07 05:17:58;;;;;;;4.00;3.40;;;;;;;;;;5107378;27;42053;-56
2023/07/07 05:20:27;;;;;;;4.07;3.47;;;;;;;;;;5105819;27;40477;-56
2023/07/07 05:22:55;;;;;;;3.92;3.53;;;;;;;;;;5107046;27;42653;-55
2023/07/07 05:25:23;;;;;;;4.05;3.50;;;;;;;;;;5110426;27;40234;-54
2023/07/07 05:27:51;;;;;;;4.78;3.70;;;;;;;;;;5109706;27;41212;-53
2023/07/07 05:30:20;;;;;;;4.13;3.67;;;;;;;;;;5109578;27;42771;-53
2023/07/07 05:32:48;;;;;;;4.13;3.55;;;;;;;;;;5102558;27;40178;-53
2023/07/07 05:35:17;;;;;;;4.97;3.55;;;;;;;;;;5089722;27;42535;-55
2023/07/07 05:37:44;;;;;;;3.40;3.10;;;;;;;;;;5089081;28;42528;-57
2023/07/07 05:40:12;;;;;;;4.10;3.70;;;;;;;;;;5093445;28;40309;-56
2023/07/07 05:42:42;;;;;;;4.75;4.13;;;;;;;;;;5100717;28;41567;-56
2023/07/07 05:45:10;;;;;;;4.75;3.92;;;;;;;;;;5090838;28;41411;-55
2023/07/07 05:47:39;;;;;;;3.80;3.50;;;;;;;;;;5091154;28;42154;-53
2023/07/07 05:50:08;;;;;;;4.65;3.50;;;;;;;;;;5097346;27;43126;-52
2023/07/07 05:52:36;;;;;;;4.63;4.00;;;;;;;;;;5104146;28;40474;-54
2023/07/07 05:55:05;;;;;;;5.32;3.70;;;;;;;;;;5109338;27;42472;-56
2023/07/07 05:57:33;;;;;;;4.40;3.83;;;;;;;;;;5109284;27;41969;-53
2023/07/07 06:00:01;;;;;;;4.32;3.78;;;;;;;;;;5110221;27;40517;-56
2023/07/07 06:02:40;;;;;;;6.22;4.00;;;;;;;;;;5108685;28;42871;-54
2023/07/07 06:05:09;;;;;;;3.92;3.53;;;;;;;;;;5106028;27;34257;-55
2023/07/07 06:07:37;;;;;;;6.05;4.22;;;;;;;;;;5108080;27;41800;-50
2023/07/07 06:10:05;;;;;;;4.55;4.07;;;;;;;;;;5091446;27;44346;-51
2023/07/07 06:12:35;;;;;;;5.50;4.13;;;;;;;;;;5102667;28;40953;-51
2023/07/07 06:15:03;;;;;;;4.47;3.95;;;;;;;;;;5105360;27;41033;-54
2023/07/07 06:17:31;;;;;;;4.63;4.15;;;;;;;;;;5087512;28;41969;-54
2023/07/07 06:20:01;;;;;;;4.78;3.97;;;;;;;;;;5088858;28;40852;-56
2023/07/07 06:22:29;;;;;;;4.63;3.85;;;;;;;;;;5101617;28;41130;-56
2023/07/07 06:24:57;;;;;;;4.43;3.97;;;;;;;;;;5109209;27;41488;-54
2023/07/07 06:27:25;;;;;;;4.90;4.00;;;;;;;;;;5108312;27;41656;-54
2023/07/07 06:29:54;;;;;;;5.38;4.00;;;;;;;;;;5108970;27;41692;-59
2023/07/07 06:32:22;;;;;;;4.03;3.60;;;;;;;;;;5108303;27;41172;-54
2023/07/07 06:34:49;;;;;;;4.80;3.70;;;;;;;;;;5109632;27;42550;-53
2023/07/07 06:37:19;;;;;;;4.32;3.92;;;;;;;;;;5108367;27;41910;-54
2023/07/07 06:39:47;;;;;;;4.43;3.63;;;;;;;;;;5109106;27;39984;-55
2023/07/07 06:42:16;;;;;;;4.05;3.65;;;;;;;;;;5108636;27;41265;-51
2023/07/07 06:44:56;;;;;;;4.00;3.47;;;;;;;;;;5106937;28;41484;-55
2023/07/07 06:47:24;;;;;;;4.63;3.50;;;;;;;;;;5109533;27;41785;-54
2023/07/07 06:49:54;;;;;;;3.80;3.17;;;;;;;;;;5100720;27;42267;-57
2023/07/07 06:52:23;;;;;;;4.60;3.58;;;;;;;;;;5097222;28;41061;-54
2023/07/07 06:54:51;;;;;;;4.88;3.85;;;;;;;;;;5097757;27;41982;-51
2023/07/07 06:57:19;;;;;;;4.60;3.65;;;;;;;;;;5099465;27;42774;-53
2023/07/07 06:59:47;;;;;;;3.72;3.30;;;;;;;;;;5100759;27;40404;-56
2023/07/07 07:02:16;;;;;;;4.82;3.63;;;;;;;;;;5105794;28;42203;-56
2023/07/07 07:04:44;;;;;;;3.83;3.40;;;;;;;;;;5101983;28;42324;-54
2023/07/07 07:07:12;;;;;;;3.47;2.90;;;;;;;;;;5106688;27;40327;-55
2023/07/07 07:09:41;;;;;;;3.97;3.63;;;;;;;;;;5098691;28;42136;-54
2023/07/07 07:12:10;;;;;;;4.68;3.20;;;;;;;;;;5107964;27;41497;-55
2023/07/07 07:14:38;;;;;;;4.97;3.47;;;;;;;;;;5102172;27;42269;-55
2023/07/07 07:17:07;;;;;;;3.65;3.10;;;;;;;;;;5088980;27;43246;-56
2023/07/07 07:19:35;;;;;;;4.28;3.50;;;;;;;;;;5104673;27;40649;-54
2023/07/07 07:22:03;;;;;;;3.70;3.10;;;;;;;;;;5108306;27;42345;-57
2023/07/07 07:24:31;;;;;;;3.83;2.95;;;;;;;;;;5091223;27;43078;-61
2023/07/07 07:27:00;;;;;;;5.72;3.25;;;;;;;;;;5087800;28;41361;-60
2023/07/07 07:29:28;;;;;;;7.18;3.45;;;;;;;;;;5087132;28;42047;-66
2023/07/07 07:31:56;;;;;;;5.18;3.10;;;;;;;;;;5099983;28;42312;-61
2023/07/07 07:34:25;;;;;;;6.85;3.22;;;;;;;;;;5096120;27;41961;-61
2023/07/07 07:36:53;;;;;;;7.03;4.10;;;;;;;;;;5108648;27;43263;-61
2023/07/07 07:39:21;;;;;;;5.53;2.95;;;;;;;;;;5099637;27;40530;-61
2023/07/07 07:41:49;;;;;;;5.95;3.15;;;;;;;;;;5101327;27;41590;-61
2023/07/07 07:44:19;;;;;;;8.90;3.38;;;;;;;;;;5097459;27;42429;-61
2023/07/07 07:46:47;;;;;;;7.47;3.40;;;;;;;;;;5092505;28;41333;-56
2023/07/07 07:49:15;;;;;;;6.47;3.92;;;;;;;;;;5087092;28;41604;-57
2023/07/07 07:51:43;;;;;;;10.73;3.42;;;;;;;;;;5096261;28;42513;-53
2023/07/07 07:54:12;;;;;;;9.80;3.35;;;;;;;;;;5108352;27;40983;-54
2023/07/07 07:56:40;;;;;;;7.80;3.60;;;;;;;;;;5106072;27;43137;-56
2023/07/07 07:59:08;;;;;;;6.25;3.40;;;;;;;;;;5105497;27;40391;-54
2023/07/07 08:01:37;;;;;;;8.95;3.47;;;;;;;;;;5097886;27;42542;-56
2023/07/07 08:04:05;;;;;;;9.75;3.30;;;;;;;;;;5107990;27;42770;-54
2023/07/07 08:06:34;;;;;;;8.48;3.50;;;;;;;;;;5107642;27;41027;-53
2023/07/07 08:09:03;;;;;;;10.55;3.50;;;;;;;;;;5107193;27;42604;-54
2023/07/07 08:11:49;;;;;;;8.77;3.67;;;;;;;;;;5105955;27;43024;-61
2023/07/07 08:14:18;;;;;;;14.10;3.08;;;;;;;;;;5107961;27;40475;-59
2023/07/07 08:16:47;;;;;;;7.68;3.00;;;;;;;;;;5106906;27;43105;-50
2023/07/07 08:19:15;;;;;;;8.43;3.08;;;;;;;;;;5107742;27;40221;-54
2023/07/07 08:21:47;;;;;;;4.80;2.72;;;;;;;;;;5107507;27;41775;-53
2023/07/07 08:24:15;;;;;;;9.15;3.20;;;;;;;;;;5100447;27;42087;-55
2023/07/07 08:26:44;;;;;;;7.10;3.22;;;;;;;;;;5094993;27;41470;-54
2023/07/07 08:29:12;;;;;;;10.00;3.28;;;;;;;;;;5099848;27;41813;-51
2023/07/07 08:31:43;;;;;;;7.82;2.78;;;;;;;;;;5098538;28;42024;-54
2023/07/07 08:34:12;;;;;;;11.55;3.42;;;;;;;;;;5096092;27;40876;-60
2023/07/07 08:36:40;;;;;;;7.30;3.00;;;;;;;;;;5093876;28;41204;-54
2023/07/07 08:39:09;;;;;;;6.97;3.72;;;;;;;;;;5080080;27;40871;-54
2023/07/07 08:41:37;;;;;;;7.20;3.78;;;;;;;;;;5097139;28;41516;-59
2023/07/07 08:44:06;;;;;;;6.70;2.90;;;;;;;;;;5098010;27;43069;-59
2023/07/07 08:46:38;;;;;;;5.43;3.08;;;;;;;;;;5099383;27;40717;-58
2023/07/07 08:49:08;;;;;;;11.25;3.47;;;;;;;;;;5097976;28;41277;-60
2023/07/07 08:51:40;;;;;;;7.70;3.30;;;;;;;;;;5097476;28;42384;-61
2023/07/07 08:54:09;;;;;;;8.63;3.25;;;;;;;;;;5104647;27;41265;-70
2023/07/07 08:56:44;;;;;;;8.30;3.22;;;;;;;;;;5102589;27;41608;-64
2023/07/07 08:59:18;;;;;;;8.77;3.00;;;;;;;;;;5106192;27;42334;-62
2023/07/07 09:01:48;;;;;;;5.63;2.80;;;;;;;;;;5107554;27;42326;-64
2023/07/07 09:04:19;;;;;;;4.82;2.90;;;;;;;;;;5106796;27;41684;-64
2023/07/07 09:06:52;;;;;;;22.42;2.90;;;;;;;;;;5106961;28;40587;-59
2023/07/07 09:09:22;;;;;;;9.18;3.20;;;;;;;;;;5104360;27;41787;-59
2023/07/07 09:11:54;;;;;;;5.47;3.10;;;;;;;;;;5104785;27;42722;-58
2023/07/07 09:14:22;;;;;;;6.65;2.88;;;;;;;;;;5103432;27;40811;-58
2023/07/07 09:16:50;;;;;;;5.22;3.17;;;;;;;;;;5105919;27;41650;-56
2023/07/07 09:19:20;;;;;;;6.57;2.72;;;;;;;;;;5101987;28;42413;-58
2023/07/07 09:21:49;;;;;;;5.18;2.65;;;;;;;;;;5096105;28;39891;-60
2023/07/07 09:24:21;;;;;;;5.78;2.80;;;;;;;;;;5104195;27;42073;-60
2023/07/07 09:26:49;;;;;;;6.10;3.15;;;;;;;;;;5106357;28;39951;-60
2023/07/07 09:29:20;;;;;;;6.00;2.53;;;;;;;;;;5105209;27;41605;-60
2023/07/07 09:31:48;;;;;;;4.85;2.90;;;;;;;;;;5106370;27;42213;-59
2023/07/07 09:34:16;;;;;;;6.70;2.58;;;;;;;;;;5105494;27;39755;-60
2023/07/07 09:36:46;;;;;;;11.32;2.90;;;;;;;;;;5106051;27;42240;-59
2023/07/07 09:39:20;;;;;;;9.15;2.85;;;;;;;;;;5105324;27;41568;-59
2023/07/07 09:41:53;;;;;;;4.78;3.28;;;;;;;;;;5104692;27;40557;-59
2023/07/07 09:44:33;;;;;;;4.32;2.60;;;;;;;;;;5103132;27;42112;-60
2023/07/07 09:47:05;;;;;;;7.25;2.72;;;;;;;;;;5106727;27;40461;-60
2023/07/07 09:49:49;;;;;;;5.88;2.83;;;;;;;;;;5098481;28;41232;-60
2023/07/07 09:52:22;;;;;;;4.07;2.08;;;;;;;;;;5106073;27;42932;-61
2023/07/07 09:54:51;;;;;;;3.38;2.45;;;;;;;;;;5105095;28;41370;-59
2023/07/07 09:57:21;;;;;;;3.72;2.47;;;;;;;;;;5106037;27;41612;-58
2023/07/07 09:59:49;;;;;;;6.43;2.65;;;;;;;;;;5104666;27;42091;-59
2023/07/07 10:02:18;;;;;;;2.95;2.30;;;;;;;;;;5104403;27;40730;-59
2023/07/07 10:04:49;;;;;;;4.15;2.75;;;;;;;;;;5106122;27;41666;-59
2023/07/07 10:07:18;;;;;;;3.72;2.17;;;;;;;;;;5105759;27;42186;-58
2023/07/07 10:09:46;;;;;;;5.57;2.45;;;;;;;;;;5103695;27;42626;-58
2023/07/07 10:12:15;;;;;;;8.25;2.78;;;;;;;;;;5105454;27;43199;-56
2023/07/07 10:14:53;;;;;;;7.60;2.80;;;;;;;;;;5068324;28;41007;-59
2023/07/07 10:17:23;;;;;;;3.15;2.17;;;;;;;;;;5066636;27;42042;-59
2023/07/07 10:19:52;;;;;;;2.65;2.33;;;;;;;;;;5067541;27;42232;-59
2023/07/07 10:22:20;;;;;;;5.43;2.30;;;;;;;;;;5065942;27;40167;-60
2023/07/07 10:24:49;;;;;;;3.15;2.20;;;;;;;;;;5067671;27;42065;-60
2023/07/07 10:27:19;;;;;;;3.00;2.30;;;;;;;;;;5068688;27;41653;-60
2023/07/07 10:29:47;;;;;;;5.15;2.58;;;;;;;;;;5066554;27;40915;-60
2023/07/07 10:32:15;;;;;;;6.07;2.47;;;;;;;;;;5062783;28;42149;-59
2023/07/07 10:34:44;;;;;;;2.60;2.03;;;;;;;;;;5065752;27;40046;-59
2023/07/07 10:37:21;;;;;;;3.60;2.22;;;;;;;;;;5066978;28;42144;-59
2023/07/07 10:39:50;;;;;;;5.07;2.00;;;;;;;;;;5063952;27;41799;-59
2023/07/07 10:42:23;;;;;;;4.40;2.70;;;;;;;;;;5067447;27;40184;-59
2023/07/07 10:44:51;;;;;;;3.70;2.42;;;;;;;;;;5065770;27;42868;-58
2023/07/07 10:47:20;;;;;;;5.30;2.47;;;;;;;;;;5068600;27;41724;-59
2023/07/07 10:49:51;;;;;;;4.57;2.70;;;;;;;;;;5065410;27;40308;-58
2023/07/07 10:52:28;;;;;;;3.70;2.35;;;;;;;;;;5061870;27;41458;-57
2023/07/07 10:55:00;;;;;;;5.70;2.88;;;;;;;;;;5066250;27;40639;-59
2023/07/07 10:57:32;;;;;;;2.92;2.40;;;;;;;;;;5060119;28;41570;-59
2023/07/07 11:00:02;;;;;;;4.03;2.72;;;;;;;;;;5067689;27;42735;-60
2023/07/07 11:02:45;;;;;;;4.15;2.60;;;;;;;;;;5064230;27;40587;-59
2023/07/07 11:05:17;;;;;;;3.25;2.33;;;;;;;;;;5059279;27;41823;-60
2023/07/07 11:07:48;;;;;;;3.90;2.10;;;;;;;;;;5065842;28;43369;-60
2023/07/07 11:10:25;;;;;;;3.50;2.53;;;;;;;;;;5063907;28;39942;-59
2023/07/07 11:13:00;;;;;;;3.92;2.45;;;;;;;;;;5065268;28;41361;-59
2023/07/07 11:15:29;;;;;;;4.50;2.42;;;;;;;;;;5066365;28;39982;-58
2023/07/07 11:18:08;;;;;;;4.35;2.38;;;;;;;;;;5065718;28;41611;-59
2023/07/07 11:20:45;;;;;;;3.85;2.35;;;;;;;;;;5062266;28;41582;-58
2023/07/07 11:23:20;;;;;;;3.33;2.25;;;;;;;;;;5066487;28;40492;-59
2023/07/07 11:25:50;;;;;;;6.00;2.55;;;;;;;;;;5061394;28;41739;-59
2023/07/07 11:28:23;;;;;;;3.95;2.53;;;;;;;;;;5063366;28;42897;-60
2023/07/07 11:30:55;;;;;;;3.65;2.40;;;;;;;;;;5067516;27;40527;-60
2023/07/07 11:33:28;;;;;;;5.63;2.40;;;;;;;;;;5066373;28;41790;-61
2023/07/07 11:35:59;;;;;;;2.20;1.90;;;;;;;;;;5068075;27;42377;-60
2023/07/07 11:38:36;;;;;;;5.82;2.33;;;;;;;;;;5067745;27;41352;-59
2023/07/07 11:41:10;;;;;;;4.35;2.47;;;;;;;;;;5066306;27;43134;-59
2023/07/07 11:44:01;;;;;;;4.35;2.42;;;;;;;;;;5067506;27;39979;-59
2023/07/07 11:46:33;;;;;;;3.85;3.35;;;;;;;;;;5064740;28;42249;-60
2023/07/07 11:49:04;;;;;;;7.82;3.78;;;;;;;;;;5067852;27;41662;-59
2023/07/07 11:51:37;;;;;;;5.78;3.97;;;;;;;;;;5059956;28;39973;-62
2023/07/07 11:54:23;;;;;;;7.40;4.20;;;;;;;;;;5058948;27;41488;-62
2023/07/07 11:56:55;;;;;;;8.18;5.03;;;;;;;;;;5078587;28;42758;-59
2023/07/07 11:59:37;;;;;;;7.28;5.53;;;;;;;;;;5104076;27;39008;-60
2023/07/07 12:02:05;;;;;;;6.95;6.25;;;;;;;;;;5103504;27;42639;-60
2023/07/07 12:04:34;;;;;;;6.80;6.10;;;;;;;;;;5103109;27;40810;-60
2023/07/07 12:07:04;;;;;;;6.55;5.95;;;;;;;;;;5105953;27;41133;-60
2023/07/07 12:09:34;;;;;;;8.05;5.47;;;;;;;;;;5102265;27;41186;-60
2023/07/07 12:12:04;;;;;;;7.60;4.13;;;;;;;;;;5104419;27;39590;-60
2023/07/07 12:14:35;;;;;;;6.15;3.92;;;;;;;;;;5097091;28;44906;-60
2023/07/07 12:17:03;;;;;;;5.18;3.60;;;;;;;;;;5105216;27;42352;-60
2023/07/07 12:19:34;;;;;;;3.80;3.50;;;;;;;;;;5102580;28;39911;-60
2023/07/07 12:22:03;;;;;;;3.95;3.25;;;;;;;;;;5104279;27;42119;-60
2023/07/07 12:24:33;;;;;;;6.13;3.25;;;;;;;;;;5104520;28;40935;-59
2023/07/07 12:27:08;;;;;;;6.25;3.08;;;;;;;;;;5103788;27;42428;-60
2023/07/07 12:29:39;;;;;;;3.83;3.40;;;;;;;;;;5103642;27;42199;-60
2023/07/07 12:32:07;;;;;;;4.20;2.80;;;;;;;;;;5099296;27;40033;-60
2023/07/07 12:34:36;;;;;;;4.07;2.97;;;;;;;;;;5108349;27;42436;-60
2023/07/07 12:37:06;;;;;;;2.78;2.40;;;;;;;;;;5106467;27;42692;-60
2023/07/07 12:39:35;;;;;;;4.25;2.58;;;;;;;;;;5099813;28;40411;-60
2023/07/07 12:42:04;;;;;;;3.85;2.35;;;;;;;;;;5107178;27;41328;-60
2023/07/07 12:44:32;;;;;;;3.45;2.35;;;;;;;;;;5106831;27;40955;-60
2023/07/07 12:47:02;;;;;;;4.60;2.60;;;;;;;;;;5108646;27;41921;-60
2023/07/07 12:49:36;;;;;;;2.65;2.22;;;;;;;;;;5104398;27;40946;-60
2023/07/07 12:52:05;;;;;;;5.85;2.65;;;;;;;;;;5108038;27;41211;-60
2023/07/07 12:54:33;;;;;;;3.35;2.30;;;;;;;;;;5106531;27;41840;-60
2023/07/07 12:57:02;;;;;;;6.70;2.58;;;;;;;;;;5107934;28;42466;-60
2023/07/07 12:59:36;;;;;;;4.97;2.42;;;;;;;;;;5106137;27;41300;-60
2023/07/07 13:02:12;;;;;;;5.63;2.35;;;;;;;;;;5108484;27;41682;-59
2023/07/07 13:04:42;;;;;;;4.55;2.33;;;;;;;;;;5099361;28;42073;-59
2023/07/07 13:07:18;;;;;;;6.60;2.55;;;;;;;;;;5092062;28;41251;-59
2023/07/07 13:09:47;;;;;;;5.28;2.00;;;;;;;;;;5107220;27;43178;-59
2023/07/07 13:12:34;;;;;;;4.53;2.13;;;;;;;;;;5105924;28;39952;-59
2023/07/07 13:15:03;;;;;;;3.08;2.20;;;;;;;;;;5108494;27;41714;-59
2023/07/07 13:17:32;;;;;;;4.70;2.60;;;;;;;;;;5105840;27;42909;-59
2023/07/07 13:20:01;;;;;;;4.45;2.20;;;;;;;;;;5107246;27;38977;-59
2023/07/07 13:22:31;;;;;;;3.33;2.30;;;;;;;;;;5105574;27;42364;-59
2023/07/07 13:25:00;;;;;;;2.60;2.33;;;;;;;;;;5107097;27;43115;-59
2023/07/07 13:27:28;;;;;;;4.50;2.80;;;;;;;;;;5105788;28;40691;-59
2023/07/07 13:29:59;;;;;;;4.57;2.35;;;;;;;;;;5106831;27;42095;-59
2023/07/07 13:32:27;;;;;;;4.93;2.53;;;;;;;;;;5102393;27;40153;-59
2023/07/07 13:34:57;;;;;;;3.63;2.10;;;;;;;;;;5103185;27;42780;-59
2023/07/07 13:37:26;;;;;;;2.58;2.20;;;;;;;;;;5106563;27;42633;-60
2023/07/07 13:39:54;;;;;;;4.55;2.30;;;;;;;;;;5105362;27;40968;-59
2023/07/07 13:42:24;;;;;;;2.78;2.40;;;;;;;;;;5100534;27;41681;-61
2023/07/07 13:44:55;;;;;;;5.15;2.80;;;;;;;;;;5099035;27;43616;-61
2023/07/07 13:47:23;;;;;;;2.60;2.40;;;;;;;;;;5096930;27;41129;-60
2023/07/07 13:49:57;;;;;;;4.38;2.38;;;;;;;;;;5098450;27;41639;-60
2023/07/07 13:52:28;;;;;;;3.20;2.30;;;;;;;;;;5102389;27;39225;-60
2023/07/07 13:54:56;;;;;;;3.22;2.15;;;;;;;;;;5106328;28;41556;-61
2023/07/07 13:57:25;;;;;;;2.72;2.28;;;;;;;;;;5105369;28;42110;-60
2023/07/07 13:59:53;;;;;;;6.25;2.63;;;;;;;;;;5107646;27;40008;-61
2023/07/07 14:02:21;;;;;;;3.80;2.42;;;;;;;;;;5103964;27;42344;-61
2023/07/07 14:04:54;;;;;;;5.90;2.13;;;;;;;;;;5108090;27;43452;-60
2023/07/07 14:07:22;;;;;;;3.65;2.60;;;;;;;;;;5101238;27;41404;-61
2023/07/07 14:09:51;;;;;;;6.90;2.40;;;;;;;;;;5105799;27;42090;-60
2023/07/07 14:12:22;;;;;;;6.07;2.42;;;;;;;;;;5104708;27;42749;-60
2023/07/07 14:14:51;;;;;;;4.00;2.30;;;;;;;;;;5106781;27;42218;-60
2023/07/07 14:17:19;;;;;;;7.72;2.72;;;;;;;;;;5105683;27;41910;-58
2023/07/07 14:19:49;;;;;;;3.20;2.05;;;;;;;;;;5104836;27;39956;-58
2023/07/07 14:22:17;;;;;;;4.70;2.97;;;;;;;;;;5104876;27;41658;-57
2023/07/07 14:24:45;;;;;;;7.10;2.40;;;;;;;;;;5105403;27;41601;-57
2023/07/07 14:27:14;;;;;;;4.55;2.50;;;;;;;;;;5106885;27;40087;-57
2023/07/07 14:29:43;;;;;;;4.00;2.65;;;;;;;;;;5103822;27;41345;-57
2023/07/07 14:32:12;;;;;;;4.32;2.30;;;;;;;;;;5105867;27;42240;-56
2023/07/07 14:34:49;;;;;;;3.80;2.50;;;;;;;;;;5104773;28;41515;-58
2023/07/07 14:37:18;;;;;;;3.75;2.47;;;;;;;;;;5104413;27;43354;-58
2023/07/07 14:39:50;;;;;;;2.80;2.20;;;;;;;;;;5105754;27;41496;-57
2023/07/07 14:42:23;;;;;;;2.88;2.30;;;;;;;;;;5095435;28;40792;-57
2023/07/07 14:44:51;;;;;;;4.38;2.40;;;;;;;;;;5103171;27;41761;-57
2023/07/07 14:47:23;;;;;;;9.35;3.00;;;;;;;;;;5098963;28;41373;-62
2023/07/07 14:49:50;;;;;;;3.67;2.47;;;;;;;;;;5104446;28;42538;-61
2023/07/07 14:52:23;;;;;;;4.40;2.30;;;;;;;;;;5103433;27;42310;-62
2023/07/07 14:54:51;;;;;;;5.18;2.50;;;;;;;;;;5105559;27;41375;-62
2023/07/07 14:57:20;;;;;;;2.30;2.10;;;;;;;;;;5103739;28;41806;-59
2023/07/07 14:59:50;;;;;;;3.83;2.15;;;;;;;;;;5105936;27;40259;-58